| time (UTC) | temp F | wind direction | speed MPH | gust MPH | rain 1hr in | rain 24hr in | rain mn in | humidity % | barometer mb |
| 20260507195442 | 81 | 145 | 2.0 | 6.0 | 0.00 | 0.01 | 0.01 | 53 | |
| 20260507194323 | 81 | 311 | 2.0 | 7.0 | 0.00 | 0.01 | 0.01 | 52 | |
| 20260507193829 | 81 | 315 | 2.0 | 7.0 | 0.00 | 0.01 | 0.01 | 53 | |
| 20260507193320 | 80 | 302 | 3.0 | 7.0 | 0.00 | 0.01 | 0.01 | 53 | |
| 20260507192807 | 80 | 273 | 3.0 | 7.0 | 0.00 | 0.01 | 0.01 | 52 | |
| 20260507192305 | 80 | 281 | 3.0 | 7.0 | 0.00 | 0.01 | 0.01 | 53 | |
| 20260507191800 | 80 | 308 | 3.0 | 7.0 | 0.00 | 0.01 | 0.01 | 54 | |
| 20260507191310 | 80 | 306 | 3.0 | 8.0 | 0.00 | 0.01 | 0.01 | 52 | |
| 20260507190806 | 79 | 5 | 3.0 | 8.0 | 0.00 | 0.01 | 0.01 | 54 | |
| 20260507190251 | 79 | 285 | 3.0 | 9.0 | 0.00 | 0.01 | 0.01 | 54 | |
| 20260507185747 | 79 | 304 | 3.0 | 9.0 | 0.00 | 0.01 | 0.01 | 53 | |
| 20260507185253 | 79 | 296 | 3.0 | 9.0 | 0.00 | 0.01 | 0.01 | 52 | |
| 20260507184737 | 79 | 300 | 3.0 | 9.0 | 0.00 | 0.01 | 0.01 | 54 | |
| 20260507184221 | 79 | 304 | 4.0 | 7.0 | 0.00 | 0.01 | 0.01 | 54 | |
| 20260507183709 | 79 | 282 | 4.0 | 7.0 | 0.00 | 0.01 | 0.01 | 54 | |
| 20260507182559 | 78 | 312 | 2.0 | 9.0 | 0.00 | 0.01 | 0.01 | 56 | |
| 20260507182054 | 78 | 319 | 3.0 | 9.0 | 0.00 | 0.01 | 0.01 | 57 | |
| 20260507181538 | 77 | 292 | 4.0 | 9.0 | 0.00 | 0.01 | 0.01 | 57 | |
| 20260507181037 | 77 | 311 | 4.0 | 9.0 | 0.00 | 0.01 | 0.01 | 57 | |
| 20260507180546 | 77 | 289 | 4.0 | 9.0 | 0.00 | 0.01 | 0.01 | 56 | |
| 20260507175431 | 77 | 295 | 2.0 | 7.0 | 0.00 | 0.01 | 0.01 | 54 | |
| 20260507174916 | 77 | 296 | 2.0 | 6.0 | 0.00 | 0.01 | 0.01 | 55 | |
| 20260507174359 | 77 | 288 | 2.0 | 6.0 | 0.00 | 0.01 | 0.01 | 56 | |
| 20260507173845 | 77 | 323 | 2.0 | 6.0 | 0.00 | 0.01 | 0.01 | 56 | |
| 20260507173337 | 77 | 297 | 2.0 | 5.0 | 0.00 | 0.01 | 0.01 | 57 | |
| 20260507172841 | 77 | 297 | 1.0 | 5.0 | 0.00 | 0.01 | 0.01 | 58 | |
| 20260507172348 | 76 | 297 | 1.0 | 4.0 | 0.00 | 0.01 | 0.01 | 58 | |
| 20260507171853 | 76 | 297 | 1.0 | 4.0 | 0.00 | 0.01 | 0.01 | 59 | |
| 20260507171355 | 75 | 297 | 1.0 | 4.0 | 0.00 | 0.01 | 0.01 | 60 | |
| 20260507170257 | 74 | 297 | 0.0 | 2.0 | 0.00 | 0.01 | 0.01 | 62 | |
| 20260507165755 | 73 | 297 | 0.0 | 1.0 | 0.00 | 0.01 | 0.01 | 65 | |
| 20260507165250 | 72 | 297 | 0.0 | 1.0 | 0.00 | 0.01 | 0.01 | 66 | |
| 20260507163505 | 69 | 297 | 0.0 | 0.0 | 0.00 | 0.01 | 0.01 | 73 | |
| 20260507163013 | 68 | 297 | 0.0 | 1.0 | 0.00 | 0.01 | 0.01 | 76 | |
| 20260507161855 | 64 | 297 | 0.0 | 0.0 | 0.00 | 0.01 | 0.01 | 87 | |
| 20260507161341 | 63 | 297 | 0.0 | 1.0 | 0.00 | 0.01 | 0.01 | 92 | |
| 20260507160839 | 62 | 297 | 0.0 | 0.0 | 0.00 | 0.01 | 0.01 | 94 | |
| 20260507160331 | 61 | 297 | 0.0 | 1.0 | 0.00 | 0.01 | 0.01 | 95 | |
| 20260507155825 | 61 | 297 | 0.0 | 0.0 | 0.00 | 0.01 | 0.01 | 96 | |
| 20260507155328 | 61 | 297 | 0.0 | 0.0 | 0.00 | 0.01 | 0.01 | 96 | |
| 20260507154835 | 60 | 297 | 0.0 | 0.0 | 0.00 | 0.01 | 0.01 | 96 | |
| 20260507154322 | 60 | 297 | 0.0 | 0.0 | 0.00 | 0.01 | 0.01 | 96 | |
| 20260507153808 | 59 | 297 | 0.0 | 0.0 | 0.00 | 0.01 | 0.01 | 96 | |
| 20260507153308 | 57 | 297 | 0.0 | 0.0 | 0.00 | 0.01 | 0.01 | 96 | |
| 20260507152757 | 56 | 297 | 0.0 | 0.0 | 0.00 | 0.01 | 0.01 | 96 | |
| 20260507152300 | 55 | 297 | 0.0 | 0.0 | 0.00 | 0.01 | 0.01 | 96 | |
| 20260507151741 | 54 | 297 | 0.0 | 0.0 | 0.00 | 0.01 | 0.01 | 95 | |
| 20260507151232 | 53 | 297 | 0.0 | 0.0 | 0.00 | 0.01 | 0.01 | 95 | |
| 20260507150740 | 53 | 297 | 0.0 | 0.0 | 0.00 | 0.01 | 0.01 | 95 | |
| 20260507150237 | 52 | 297 | 0.0 | 0.0 | 0.00 | 0.01 | 0.01 | 95 | |
| 20260507145729 | 52 | 297 | 0.0 | 0.0 | 0.00 | 0.01 | 0.01 | 95 | |
| 20260507145221 | 51 | 297 | 0.0 | 0.0 | 0.00 | 0.01 | 0.01 | 94 | |
| 20260507144112 | 50 | 297 | 0.0 | 0.0 | 0.00 | 0.01 | 0.01 | 93 | |
| 20260507143620 | 50 | 297 | 0.0 | 0.0 | 0.00 | 0.01 | 0.01 | 93 | |
| 20260507143120 | 49 | 297 | 0.0 | 0.0 | 0.00 | 0.01 | 0.01 | 93 | |
| 20260507142623 | 49 | 297 | 0.0 | 0.0 | 0.00 | 0.01 | 0.01 | 93 | |
| 20260507142128 | 49 | 297 | 0.0 | 0.0 | 0.00 | 0.01 | 0.01 | 93 | |
| 20260507141625 | 49 | 297 | 0.0 | 0.0 | 0.00 | 0.01 | 0.01 | 92 | |
| 20260507141124 | 48 | 297 | 0.0 | 0.0 | 0.00 | 0.01 | 0.01 | 92 | |
| 20260507140628 | 48 | 297 | 0.0 | 0.0 | 0.00 | 0.01 | 0.01 | 92 | |
| 20260507140116 | 48 | 297 | 0.0 | 0.0 | 0.00 | 0.01 | 0.01 | 92 | |
| 20260507135611 | 48 | 297 | 0.0 | 0.0 | 0.00 | 0.01 | 0.01 | 91 | |
| 20260507135117 | 48 | 297 | 0.0 | 0.0 | 0.00 | 0.01 | 0.01 | 91 | |
| 20260507134004 | 48 | 297 | 0.0 | 0.0 | 0.00 | 0.01 | 0.01 | 91 | |
| 20260507133448 | 48 | 297 | 0.0 | 0.0 | 0.00 | 0.01 | 0.01 | 91 | |
| 20260507132952 | 48 | 297 | 0.0 | 0.0 | 0.00 | 0.01 | 0.01 | 91 | |
| 20260507132441 | 48 | 297 | 0.0 | 0.0 | 0.00 | 0.01 | 0.01 | 91 | |
| 20260507131313 | 48 | 297 | 0.0 | 0.0 | 0.00 | 0.01 | 0.01 | 91 | |
| 20260507130807 | 48 | 297 | 0.0 | 0.0 | 0.00 | 0.01 | 0.01 | 91 | |
| 20260507130303 | 48 | 297 | 0.0 | 0.0 | 0.00 | 0.01 | 0.01 | 91 | |
| 20260507125743 | 48 | 297 | 0.0 | 0.0 | 0.00 | 0.01 | 0.01 | 91 | |
| 20260507125246 | 48 | 297 | 0.0 | 0.0 | 0.00 | 0.01 | 0.01 | 91 | |
| 20260507124109 | 49 | 297 | 0.0 | 0.0 | 0.00 | 0.01 | 0.01 | 91 | |
| 20260507123552 | 49 | 297 | 0.0 | 0.0 | 0.00 | 0.01 | 0.01 | 91 | |
| 20260507123045 | 49 | 297 | 0.0 | 0.0 | 0.00 | 0.01 | 0.01 | 91 | |
| 20260507122540 | 49 | 297 | 0.0 | 0.0 | 0.00 | 0.01 | 0.01 | 91 | |
| 20260507122037 | 49 | 297 | 0.0 | 0.0 | 0.00 | 0.01 | 0.01 | 91 | |
| 20260507120923 | 49 | 297 | 0.0 | 0.0 | 0.00 | 0.01 | 0.01 | 91 | |
| 20260507120415 | 49 | 297 | 0.0 | 0.0 | 0.00 | 0.01 | 0.01 | 90 | |
| 20260507115923 | 49 | 297 | 0.0 | 0.0 | 0.00 | 0.01 | 0.01 | 90 | |
| 20260507115430 | 49 | 297 | 0.0 | 0.0 | 0.00 | 0.01 | 0.01 | 90 | |
| 20260507114923 | 49 | 297 | 0.0 | 0.0 | 0.00 | 0.00 | 0.01 | 90 | |
| 20260507114431 | 49 | 297 | 0.0 | 0.0 | 0.00 | 0.00 | 0.00 | 90 | |
| 20260507113934 | 49 | 297 | 0.0 | 0.0 | 0.00 | 0.00 | 0.00 | 90 | |
| 20260507113432 | 49 | 297 | 0.0 | 0.0 | 0.00 | 0.00 | 0.00 | 90 | |
| 20260507112937 | 49 | 297 | 0.0 | 0.0 | 0.00 | 0.00 | 0.00 | 90 | |
| 20260507112425 | 49 | 297 | 0.0 | 0.0 | 0.00 | 0.00 | 0.00 | 90 | |
| 20260507111934 | 49 | 297 | 0.0 | 0.0 | 0.00 | 0.00 | 0.00 | 89 | |
| 20260507111442 | 49 | 297 | 0.0 | 0.0 | 0.00 | 0.00 | 0.00 | 89 | |
| 20260507110943 | 50 | 297 | 0.0 | 0.0 | 0.00 | 0.00 | 0.00 | 90 | |
| 20260507110447 | 50 | 297 | 0.0 | 0.0 | 0.00 | 0.00 | 0.00 | 90 | |
| 20260507105309 | 50 | 297 | 0.0 | 0.0 | 0.00 | 0.00 | 0.00 | 90 | |
| 20260507104809 | 50 | 297 | 0.0 | 0.0 | 0.00 | 0.00 | 0.00 | 90 | |
| 20260507104312 | 50 | 297 | 0.0 | 0.0 | 0.00 | 0.00 | 0.00 | 90 | |
| 20260507103804 | 50 | 297 | 0.0 | 0.0 | 0.00 | 0.00 | 0.00 | 90 | |
| 20260507103245 | 50 | 297 | 0.0 | 0.0 | 0.00 | 0.00 | 0.00 | 90 | |
| 20260507102743 | 50 | 297 | 0.0 | 0.0 | 0.00 | 0.00 | 0.00 | 90 | |
| 20260507102226 | 50 | 297 | 0.0 | 0.0 | 0.00 | 0.00 | 0.00 | 90 | |
| 20260507101734 | 50 | 297 | 0.0 | 0.0 | 0.00 | 0.00 | 0.00 | 90 | |
| 20260507101232 | 51 | 297 | 0.0 | 0.0 | 0.00 | 0.00 | 0.00 | 90 | |
| 20260507100714 | 51 | 297 | 0.0 | 0.0 | 0.00 | 0.00 | 0.00 | 90 | |
| 20260507100221 | 51 | 297 | 0.0 | 0.0 | 0.00 | 0.00 | 0.00 | 90 | |
| 20260507095724 | 51 | 297 | 0.0 | 0.0 | 0.00 | 0.00 | 0.00 | 90 | |
| 20260507095203 | 51 | 297 | 0.0 | 0.0 | 0.00 | 0.00 | 0.00 | 89 | |
| 20260507094650 | 51 | 297 | 0.0 | 0.0 | 0.00 | 0.00 | 0.00 | 89 | |
| 20260507094132 | 51 | 297 | 0.0 | 0.0 | 0.00 | 0.00 | 0.00 | 89 | |
| 20260507093631 | 51 | 297 | 0.0 | 0.0 | 0.00 | 0.00 | 0.00 | 89 | |
| 20260507093121 | 51 | 297 | 0.0 | 0.0 | 0.00 | 0.00 | 0.00 | 89 | |
| 20260507092615 | 51 | 297 | 0.0 | 0.0 | 0.00 | 0.00 | 0.00 | 89 | |
| 20260507091459 | 51 | 297 | 0.0 | 0.0 | 0.00 | 0.00 | 0.00 | 88 | |
| 20260507090954 | 51 | 297 | 0.0 | 0.0 | 0.00 | 0.00 | 0.00 | 88 | |
| 20260507085842 | 51 | 297 | 0.0 | 0.0 | 0.00 | 0.00 | 0.00 | 88 | |
| 20260507085330 | 51 | 297 | 0.0 | 0.0 | 0.00 | 0.00 | 0.00 | 88 | |
| 20260507084811 | 51 | 297 | 0.0 | 0.0 | 0.00 | 0.00 | 0.00 | 87 | |
| 20260507084312 | 51 | 297 | 0.0 | 0.0 | 0.00 | 0.00 | 0.00 | 88 | |
| 20260507083156 | 52 | 297 | 0.0 | 0.0 | 0.00 | 0.00 | 0.00 | 87 | |
| 20260507082702 | 52 | 297 | 0.0 | 0.0 | 0.00 | 0.00 | 0.00 | 87 | |
| 20260507081543 | 52 | 297 | 0.0 | 0.0 | 0.00 | 0.00 | 0.00 | 87 | |
| 20260507075816 | 53 | 297 | 0.0 | 0.0 | 0.00 | 0.00 | 0.00 | 87 | |
| 20260507075310 | 53 | 297 | 0.0 | 0.0 | 0.00 | 0.00 | 0.00 | 88 | |
| 20260507074801 | 53 | 297 | 0.0 | 0.0 | 0.00 | 0.00 | 0.00 | 88 | |
| 20260507074251 | 53 | 297 | 0.0 | 0.0 | 0.00 | 0.00 | 0.00 | 88 | |
| 20260507073742 | 53 | 297 | 0.0 | 0.0 | 0.00 | 0.00 | 0.00 | 87 | |
| 20260507073249 | 53 | 297 | 0.0 | 0.0 | 0.00 | 0.00 | 0.00 | 87 | |
| 20260507072737 | 53 | 297 | 0.0 | 0.0 | 0.00 | 0.00 | 0.00 | 87 | |
| 20260507072220 | 53 | 297 | 0.0 | 0.0 | 0.00 | 0.00 | 0.00 | 87 | |
| 20260507071052 | 54 | 297 | 0.0 | 0.0 | 0.00 | 0.00 | 0.00 | 87 | |
| 20260507070544 | 54 | 297 | 0.0 | 0.0 | 0.00 | 0.00 | 0.00 | 86 | |
| 20260507065426 | 54 | 297 | 0.0 | 0.0 | 0.00 | 0.00 | 0.00 | 86 | |
| 20260507064911 | 54 | 297 | 0.0 | 0.0 | 0.00 | 0.00 | 0.00 | 85 | |
| 20260507063747 | 54 | 297 | 0.0 | 0.0 | 0.00 | 0.00 | 0.00 | 86 | |
| 20260507063242 | 55 | 297 | 0.0 | 0.0 | 0.00 | 0.00 | 0.00 | 85 | |
| 20260507062738 | 55 | 297 | 0.0 | 0.0 | 0.00 | 0.00 | 0.00 | 85 | |
| 20260507062243 | 55 | 297 | 0.0 | 0.0 | 0.00 | 0.00 | 0.00 | 85 | |
| 20260507061748 | 55 | 297 | 0.0 | 0.0 | 0.00 | 0.00 | 0.00 | 85 | |
| 20260507061256 | 55 | 297 | 0.0 | 0.0 | 0.00 | 0.00 | 0.00 | 84 | |
| 20260507060754 | 55 | 297 | 0.0 | 0.0 | 0.00 | 0.00 | 0.00 | 83 | |
| 20260507060301 | 55 | 297 | 0.0 | 0.0 | 0.00 | 0.00 | 0.00 | 83 | |
| 20260507055116 | 56 | 297 | 0.0 | 0.0 | 0.00 | 0.00 | 0.00 | 82 | |
| 20260507054623 | 56 | 297 | 0.0 | 0.0 | 0.00 | 0.00 | 0.00 | 82 | |
| 20260507054126 | 56 | 297 | 0.0 | 0.0 | 0.00 | 0.00 | 0.00 | 82 | |
| 20260507053614 | 56 | 297 | 0.0 | 0.0 | 0.00 | 0.00 | 0.00 | 82 | |
| 20260507053109 | 56 | 297 | 0.0 | 0.0 | 0.00 | 0.00 | 0.00 | 82 | |
| 20260507052559 | 57 | 297 | 0.0 | 0.0 | 0.00 | 0.00 | 0.00 | 81 | |
| 20260507052049 | 57 | 297 | 0.0 | 0.0 | 0.00 | 0.00 | 0.00 | 81 | |
| 20260507051538 | 57 | 297 | 0.0 | 0.0 | 0.00 | 0.00 | 0.00 | 80 | |
| 20260507050422 | 58 | 297 | 0.0 | 0.0 | 0.00 | 0.00 | 0.00 | 80 | |
| 20260507045915 | 58 | 297 | 0.0 | 0.0 | 0.00 | 0.00 | 0.00 | 80 | |
| 20260507045409 | 58 | 297 | 0.0 | 0.0 | 0.00 | 0.00 | 0.00 | 80 | |
| 20260507044850 | 58 | 297 | 0.0 | 0.0 | 0.00 | 0.00 | 0.00 | 79 | |
| 20260507044344 | 59 | 297 | 0.0 | 0.0 | 0.00 | 0.00 | 0.00 | 78 | |
| 20260507043222 | 59 | 297 | 0.0 | 0.0 | 0.00 | 0.00 | 0.00 | 77 | |
| 20260507042714 | 60 | 297 | 0.0 | 0.0 | 0.00 | 0.00 | 0.00 | 77 | |
| 20260507042219 | 60 | 297 | 0.0 | 0.0 | 0.00 | 0.00 | 0.00 | 77 | |
| 20260507041723 | 60 | 297 | 0.0 | 0.0 | 0.00 | 0.00 | 0.00 | 77 | |
| 20260507041218 | 60 | 297 | 0.0 | 0.0 | 0.00 | 0.00 | 0.00 | 76 | |
| 20260507040716 | 61 | 297 | 0.0 | 0.0 | 0.00 | 0.00 | 0.00 | 75 | |
| 20260507040202 | 61 | 297 | 0.0 | 0.0 | 0.00 | 0.00 | 0.00 | 75 | |
| 20260507035056 | 62 | 297 | 0.0 | 0.0 | 0.00 | 0.00 | 0.00 | 74 | |
| 20260507034545 | 62 | 297 | 0.0 | 0.0 | 0.00 | 0.00 | 0.00 | 73 | |
| 20260507034025 | 63 | 297 | 0.0 | 0.0 | 0.00 | 0.00 | 0.00 | 73 | |
| 20260507032237 | 64 | 297 | 0.0 | 0.0 | 0.00 | 0.00 | 0.00 | 71 | |
| 20260507031745 | 64 | 297 | 0.0 | 0.0 | 0.00 | 0.00 | 0.00 | 71 | |
| 20260507031237 | 64 | 297 | 0.0 | 0.0 | 0.00 | 0.00 | 0.00 | 71 | |
| 20260507030721 | 64 | 297 | 0.0 | 0.0 | 0.00 | 0.00 | 0.00 | 70 | |
| 20260507030230 | 65 | 297 | 0.0 | 0.0 | 0.00 | 0.00 | 0.00 | 70 | |
| 20260507025739 | 65 | 297 | 0.0 | 0.0 | 0.00 | 0.00 | 0.00 | 70 | |
| 20260507025233 | 65 | 297 | 0.0 | 3.0 | 0.00 | 0.00 | 0.00 | 70 | |
| 20260507024741 | 65 | 297 | 0.0 | 3.0 | 0.00 | 0.00 | 0.00 | 69 | |
| 20260507024250 | 66 | 297 | 1.0 | 3.0 | 0.00 | 0.00 | 0.00 | 68 | |
| 20260507023733 | 66 | 297 | 0.0 | 3.0 | 0.00 | 0.00 | 0.00 | 67 | |
| 20260507023228 | 67 | 297 | 0.0 | 3.0 | 0.00 | 0.00 | 0.00 | 66 | |
| 20260507022715 | 67 | 297 | 1.0 | 3.0 | 0.00 | 0.00 | 0.00 | 66 | |
| 20260507022223 | 67 | 297 | 2.0 | 3.0 | 0.00 | 0.00 | 0.00 | 65 | |
| 20260507021709 | 67 | 297 | 1.0 | 3.0 | 0.00 | 0.00 | 0.00 | 65 | |
| 20260507021154 | 68 | 297 | 1.0 | 3.0 | 0.00 | 0.00 | 0.00 | 63 | |
| 20260507020654 | 68 | 297 | 1.0 | 3.0 | 0.00 | 0.00 | 0.00 | 63 | |
| 20260507015529 | 69 | 297 | 3.0 | 6.0 | 0.00 | 0.00 | 0.00 | 61 | |
| 20260507013738 | 72 | 297 | 3.0 | 5.0 | 0.00 | 0.00 | 0.00 | 57 | |
| 20260507013239 | 73 | 296 | 3.0 | 5.0 | 0.00 | 0.00 | 0.00 | 56 | |
| 20260507012720 | 73 | 300 | 2.0 | 5.0 | 0.00 | 0.00 | 0.00 | 55 | |
| 20260507012213 | 74 | 300 | 2.0 | 4.0 | 0.00 | 0.00 | 0.00 | 55 | |
| 20260507010449 | 75 | 301 | 2.0 | 5.0 | 0.00 | 0.00 | 0.00 | 53 | |
| 20260507005929 | 75 | 302 | 1.0 | 4.0 | 0.00 | 0.00 | 0.00 | 53 | |
| 20260507004805 | 76 | 302 | 0.0 | 5.0 | 0.00 | 0.00 | 0.00 | 52 | |
| 20260507004302 | 76 | 302 | 1.0 | 5.0 | 0.00 | 0.00 | 0.00 | 52 | |
| 20260507003759 | 76 | 302 | 1.0 | 5.0 | 0.00 | 0.00 | 0.00 | 53 | |
| 20260507002632 | 76 | 304 | 1.0 | 6.0 | 0.00 | 0.00 | 0.00 | 53 | |
| 20260507002138 | 76 | 304 | 1.0 | 6.0 | 0.00 | 0.00 | 0.00 | 53 | |
| 20260507001639 | 76 | 303 | 1.0 | 6.0 | 0.00 | 0.00 | 0.00 | 53 | |
| 20260507001130 | 77 | 297 | 1.0 | 6.0 | 0.00 | 0.00 | 0.00 | 53 | |
| 20260507000638 | 77 | 297 | 1.0 | 9.0 | 0.00 | 0.00 | 0.00 | 53 | |
| 20260507000146 | 77 | 315 | 2.0 | 9.0 | 0.00 | 0.00 | 0.00 | 52 | |
| 20260506235654 | 77 | 150 | 1.0 | 9.0 | 0.00 | 0.00 | 0.00 | 51 | |
| 20260506235138 | 78 | 314 | 0.0 | 0.0 | 0.00 | 0.00 | 0.00 | 52 | |
| 20260506234637 | 78 | 325 | 0.0 | 5.0 | 0.00 | 0.00 | 0.00 | 52 | |
| 20260506234120 | 77 | 0 | 0.0 | 4.0 | 0.00 | 0.00 | 0.00 | 52 | |
| 20260506233617 | 77 | 309 | 1.0 | 5.0 | 0.00 | 0.00 | 0.00 | 53 | |
| 20260506233124 | 77 | 301 | 1.0 | 5.0 | 0.00 | 0.00 | 0.00 | 52 | |
| 20260506231958 | 77 | 277 | 0.0 | 6.0 | 0.00 | 0.00 | 0.00 | 51 | |
| 20260506231454 | 77 | 5 | 1.0 | 6.0 | 0.00 | 0.00 | 0.00 | 52 | |
| 20260506230944 | 78 | 303 | 1.0 | 6.0 | 0.00 | 0.00 | 0.00 | 51 | |
| 20260506230430 | 78 | 309 | 0.0 | 3.0 | 0.00 | 0.00 | 0.00 | 52 | |
| 20260506225936 | 78 | 63 | 0.0 | 6.0 | 0.00 | 0.00 | 0.00 | 51 | |
| 20260506225417 | 78 | 327 | 0.0 | 6.0 | 0.00 | 0.00 | 0.00 | 52 | |
| 20260506224926 | 78 | 326 | 1.0 | 6.0 | 0.00 | 0.00 | 0.00 | 52 | |
| 20260506224422 | 78 | 295 | 1.0 | 6.0 | 0.00 | 0.00 | 0.00 | 51 | |
| 20260506223932 | 79 | 284 | 1.0 | 5.0 | 0.00 | 0.00 | 0.00 | 49 | |
| 20260506223422 | 79 | 341 | 0.0 | 5.0 | 0.00 | 0.00 | 0.00 | 50 | |
| 20260506222256 | 79 | 162 | 0.0 | 3.0 | 0.00 | 0.00 | 0.00 | 50 | |
| 20260506221800 | 79 | 106 | 0.0 | 3.0 | 0.00 | 0.00 | 0.00 | 49 | |
| 20260506221252 | 79 | 148 | 0.0 | 2.0 | 0.00 | 0.00 | 0.00 | 50 | |
| 20260506220735 | 79 | 134 | 0.0 | 4.0 | 0.00 | 0.00 | 0.00 | 49 | |
| 20260506220236 | 79 | 35 | 0.0 | 4.0 | 0.00 | 0.00 | 0.00 | 51 | |
| 20260506215726 | 79 | 148 | 0.0 | 4.0 | 0.00 | 0.00 | 0.00 | 49 | |
| 20260506215236 | 79 | 97 | 0.0 | 4.0 | 0.00 | 0.00 | 0.00 | 50 | |
| 20260506214741 | 79 | 295 | 0.0 | 5.0 | 0.00 | 0.00 | 0.00 | 51 | |
| 20260506214230 | 79 | 65 | 0.0 | 5.0 | 0.00 | 0.00 | 0.00 | 49 | |
| 20260506213100 | 79 | 159 | 0.0 | 5.0 | 0.00 | 0.00 | 0.00 | 49 | |
| 20260506212549 | 78 | 355 | 0.0 | 2.0 | 0.00 | 0.00 | 0.00 | 50 | |
| 20260506211407 | 78 | 244 | 0.0 | 4.0 | 0.00 | 0.00 | 0.00 | 50 | |
| 20260506210913 | 78 | 40 | 0.0 | 4.0 | 0.00 | 0.00 | 0.00 | 50 | |
| 20260506210405 | 78 | 157 | 0.0 | 4.0 | 0.00 | 0.00 | 0.00 | 49 | |
| 20260506204616 | 77 | 82 | 0.0 | 3.0 | 0.00 | 0.00 | 0.00 | 51 | |
| 20260506204119 | 77 | 67 | 0.0 | 3.0 | 0.00 | 0.00 | 0.00 | 52 | |
| 20260506203617 | 77 | 81 | 0.0 | 3.0 | 0.00 | 0.00 | 0.00 | 52 | |
| 20260506202434 | 77 | 93 | 0.0 | 3.0 | 0.00 | 0.00 | 0.00 | 50 | |
| 20260506201309 | 77 | 67 | 0.0 | 3.0 | 0.00 | 0.00 | 0.00 | 51 | |
| 20260506200818 | 77 | 42 | 0.0 | 3.0 | 0.00 | 0.00 | 0.00 | 50 | |
| 20260506200312 | 77 | 177 | 0.0 | 3.0 | 0.00 | 0.00 | 0.00 | 50 | |
| 20260506195807 | 78 | 144 | 0.0 | 3.0 | 0.00 | 0.00 | 0.00 | 51 |